sensor_id;sensor_type;location;lat;lon;timestamp;P1;durP1;ratioP1;P2;durP2;ratioP2
10191;SDS011;17580;50.850;4.504;2023-03-19T00:01:56;2.53;;;2.30;;
10191;SDS011;17580;50.850;4.504;2023-03-19T00:04:24;1.97;;;1.87;;
10191;SDS011;17580;50.850;4.504;2023-03-19T00:06:52;1.97;;;1.90;;
10191;SDS011;17580;50.850;4.504;2023-03-19T00:09:19;2.80;;;1.90;;
10191;SDS011;17580;50.850;4.504;2023-03-19T00:11:47;2.20;;;2.00;;
10191;SDS011;17580;50.850;4.504;2023-03-19T00:14:14;2.13;;;2.03;;
10191;SDS011;17580;50.850;4.504;2023-03-19T00:16:43;3.57;;;2.30;;
10191;SDS011;17580;50.850;4.504;2023-03-19T00:19:10;2.00;;;1.90;;
10191;SDS011;17580;50.850;4.504;2023-03-19T00:21:37;2.50;;;1.77;;
10191;SDS011;17580;50.850;4.504;2023-03-19T00:24:04;1.80;;;1.70;;
10191;SDS011;17580;50.850;4.504;2023-03-19T00:26:32;2.60;;;2.40;;
10191;SDS011;17580;50.850;4.504;2023-03-19T00:29:00;2.00;;;1.80;;
10191;SDS011;17580;50.850;4.504;2023-03-19T00:31:28;2.27;;;2.07;;
10191;SDS011;17580;50.850;4.504;2023-03-19T00:33:57;2.27;;;2.10;;
10191;SDS011;17580;50.850;4.504;2023-03-19T00:36:26;2.10;;;2.00;;
10191;SDS011;17580;50.850;4.504;2023-03-19T00:38:54;1.80;;;1.70;;
10191;SDS011;17580;50.850;4.504;2023-03-19T00:41:21;2.50;;;2.30;;
10191;SDS011;17580;50.850;4.504;2023-03-19T00:43:51;2.90;;;2.53;;
10191;SDS011;17580;50.850;4.504;2023-03-19T00:46:18;2.03;;;1.93;;
10191;SDS011;17580;50.850;4.504;2023-03-19T00:48:46;1.93;;;1.83;;
10191;SDS011;17580;50.850;4.504;2023-03-19T00:51:14;2.20;;;2.10;;
10191;SDS011;17580;50.850;4.504;2023-03-19T00:53:41;2.20;;;2.10;;
10191;SDS011;17580;50.850;4.504;2023-03-19T00:56:09;2.70;;;2.07;;
10191;SDS011;17580;50.850;4.504;2023-03-19T00:58:37;2.33;;;2.13;;
10191;SDS011;17580;50.850;4.504;2023-03-19T01:01:05;1.87;;;1.77;;
10191;SDS011;17580;50.850;4.504;2023-03-19T01:03:32;3.27;;;1.70;;
10191;SDS011;17580;50.850;4.504;2023-03-19T01:06:00;4.30;;;2.17;;
10191;SDS011;17580;50.850;4.504;2023-03-19T01:08:28;1.93;;;1.83;;
10191;SDS011;17580;50.850;4.504;2023-03-19T01:10:55;1.87;;;1.60;;
10191;SDS011;17580;50.850;4.504;2023-03-19T01:13:29;1.70;;;1.60;;
10191;SDS011;17580;50.850;4.504;2023-03-19T01:15:56;2.03;;;1.93;;
10191;SDS011;17580;50.850;4.504;2023-03-19T01:18:23;1.67;;;1.57;;
10191;SDS011;17580;50.850;4.504;2023-03-19T01:20:51;1.70;;;1.60;;
10191;SDS011;17580;50.850;4.504;2023-03-19T01:23:18;2.20;;;1.90;;
10191;SDS011;17580;50.850;4.504;2023-03-19T01:25:46;2.00;;;1.80;;
10191;SDS011;17580;50.850;4.504;2023-03-19T01:28:13;2.10;;;1.73;;
10191;SDS011;17580;50.850;4.504;2023-03-19T01:30:40;2.93;;;2.67;;
10191;SDS011;17580;50.850;4.504;2023-03-19T01:33:08;1.70;;;1.63;;
10191;SDS011;17580;50.850;4.504;2023-03-19T01:35:35;2.33;;;2.13;;
10191;SDS011;17580;50.850;4.504;2023-03-19T01:38:02;2.03;;;1.80;;
10191;SDS011;17580;50.850;4.504;2023-03-19T01:40:29;2.50;;;2.30;;
10191;SDS011;17580;50.850;4.504;2023-03-19T01:43:10;2.10;;;2.00;;
10191;SDS011;17580;50.850;4.504;2023-03-19T01:45:40;2.10;;;2.00;;
10191;SDS011;17580;50.850;4.504;2023-03-19T01:48:10;3.47;;;2.53;;
10191;SDS011;17580;50.850;4.504;2023-03-19T01:50:44;2.27;;;2.17;;
10191;SDS011;17580;50.850;4.504;2023-03-19T01:53:14;3.17;;;2.97;;
10191;SDS011;17580;50.850;4.504;2023-03-19T01:55:44;2.40;;;2.30;;
10191;SDS011;17580;50.850;4.504;2023-03-19T01:58:14;2.50;;;2.40;;
10191;SDS011;17580;50.850;4.504;2023-03-19T02:00:41;3.37;;;2.60;;
10191;SDS011;17580;50.850;4.504;2023-03-19T02:03:08;3.13;;;2.70;;
10191;SDS011;17580;50.850;4.504;2023-03-19T02:05:36;2.70;;;2.50;;
10191;SDS011;17580;50.850;4.504;2023-03-19T02:08:05;2.50;;;2.30;;
10191;SDS011;17580;50.850;4.504;2023-03-19T02:10:35;5.63;;;3.00;;
10191;SDS011;17580;50.850;4.504;2023-03-19T02:13:03;3.03;;;2.93;;
10191;SDS011;17580;50.850;4.504;2023-03-19T02:15:32;2.97;;;2.77;;
10191;SDS011;17580;50.850;4.504;2023-03-19T02:17:59;4.33;;;3.47;;
10191;SDS011;17580;50.850;4.504;2023-03-19T02:20:28;4.17;;;3.70;;
10191;SDS011;17580;50.850;4.504;2023-03-19T02:23:01;4.00;;;3.70;;
10191;SDS011;17580;50.850;4.504;2023-03-19T02:25:38;4.67;;;4.27;;
10191;SDS011;17580;50.850;4.504;2023-03-19T02:28:13;4.93;;;4.60;;
10191;SDS011;17580;50.850;4.504;2023-03-19T02:30:42;5.30;;;4.53;;
10191;SDS011;17580;50.850;4.504;2023-03-19T02:33:11;5.03;;;4.63;;
10191;SDS011;17580;50.850;4.504;2023-03-19T02:35:40;6.83;;;5.83;;
10191;SDS011;17580;50.850;4.504;2023-03-19T02:38:08;6.63;;;6.07;;
10191;SDS011;17580;50.850;4.504;2023-03-19T02:40:37;5.37;;;4.87;;
10191;SDS011;17580;50.850;4.504;2023-03-19T02:43:07;7.47;;;6.53;;
10191;SDS011;17580;50.850;4.504;2023-03-19T02:45:36;6.50;;;5.90;;
10191;SDS011;17580;50.850;4.504;2023-03-19T02:48:03;6.30;;;5.70;;
10191;SDS011;17580;50.850;4.504;2023-03-19T02:50:30;5.57;;;5.07;;
10191;SDS011;17580;50.850;4.504;2023-03-19T02:52:58;6.80;;;5.70;;
10191;SDS011;17580;50.850;4.504;2023-03-19T02:55:25;6.97;;;6.23;;
10191;SDS011;17580;50.850;4.504;2023-03-19T02:57:52;6.93;;;6.33;;
10191;SDS011;17580;50.850;4.504;2023-03-19T03:00:19;7.97;;;7.17;;
10191;SDS011;17580;50.850;4.504;2023-03-19T03:02:48;8.33;;;7.33;;
10191;SDS011;17580;50.850;4.504;2023-03-19T03:05:15;6.70;;;6.17;;
10191;SDS011;17580;50.850;4.504;2023-03-19T03:07:42;8.80;;;7.27;;
10191;SDS011;17580;50.850;4.504;2023-03-19T03:10:09;7.17;;;6.30;;
10191;SDS011;17580;50.850;4.504;2023-03-19T03:12:37;7.00;;;6.40;;
10191;SDS011;17580;50.850;4.504;2023-03-19T03:15:04;8.80;;;7.77;;
10191;SDS011;17580;50.850;4.504;2023-03-19T03:17:32;6.07;;;5.67;;
10191;SDS011;17580;50.850;4.504;2023-03-19T03:20:04;8.27;;;7.53;;
10191;SDS011;17580;50.850;4.504;2023-03-19T03:22:32;7.47;;;6.87;;
10191;SDS011;17580;50.850;4.504;2023-03-19T03:24:59;9.57;;;8.57;;
10191;SDS011;17580;50.850;4.504;2023-03-19T03:27:26;7.97;;;7.27;;
10191;SDS011;17580;50.850;4.504;2023-03-19T03:29:53;9.17;;;8.30;;
10191;SDS011;17580;50.850;4.504;2023-03-19T03:32:21;10.33;;;9.30;;
10191;SDS011;17580;50.850;4.504;2023-03-19T03:34:48;9.03;;;8.23;;
10191;SDS011;17580;50.850;4.504;2023-03-19T03:37:17;9.97;;;8.97;;
10191;SDS011;17580;50.850;4.504;2023-03-19T03:39:44;11.27;;;10.20;;
10191;SDS011;17580;50.850;4.504;2023-03-19T03:42:12;9.27;;;8.37;;
10191;SDS011;17580;50.850;4.504;2023-03-19T03:44:39;10.07;;;9.07;;
10191;SDS011;17580;50.850;4.504;2023-03-19T03:47:06;12.33;;;8.47;;
10191;SDS011;17580;50.850;4.504;2023-03-19T03:49:34;8.67;;;7.87;;
10191;SDS011;17580;50.850;4.504;2023-03-19T03:52:01;9.00;;;7.97;;
10191;SDS011;17580;50.850;4.504;2023-03-19T03:54:29;9.73;;;8.73;;
10191;SDS011;17580;50.850;4.504;2023-03-19T03:56:57;10.67;;;9.67;;
10191;SDS011;17580;50.850;4.504;2023-03-19T03:59:24;9.13;;;8.20;;
10191;SDS011;17580;50.850;4.504;2023-03-19T04:01:51;9.73;;;8.73;;
10191;SDS011;17580;50.850;4.504;2023-03-19T04:04:18;10.70;;;9.63;;
10191;SDS011;17580;50.850;4.504;2023-03-19T04:06:46;11.70;;;8.23;;
10191;SDS011;17580;50.850;4.504;2023-03-19T04:09:13;9.77;;;8.63;;
10191;SDS011;17580;50.850;4.504;2023-03-19T04:11:42;10.53;;;9.47;;
10191;SDS011;17580;50.850;4.504;2023-03-19T04:14:09;9.20;;;8.30;;
10191;SDS011;17580;50.850;4.504;2023-03-19T04:16:36;12.13;;;9.47;;
10191;SDS011;17580;50.850;4.504;2023-03-19T04:19:03;11.60;;;10.07;;
10191;SDS011;17580;50.850;4.504;2023-03-19T04:21:31;11.00;;;9.90;;
10191;SDS011;17580;50.850;4.504;2023-03-19T04:23:59;11.33;;;10.13;;
10191;SDS011;17580;50.850;4.504;2023-03-19T04:26:26;10.47;;;9.47;;
10191;SDS011;17580;50.850;4.504;2023-03-19T04:28:54;12.33;;;8.87;;
10191;SDS011;17580;50.850;4.504;2023-03-19T04:31:23;10.57;;;8.40;;
10191;SDS011;17580;50.850;4.504;2023-03-19T04:33:50;9.33;;;8.37;;
10191;SDS011;17580;50.850;4.504;2023-03-19T04:36:17;10.23;;;8.00;;
10191;SDS011;17580;50.850;4.504;2023-03-19T04:38:44;9.47;;;8.53;;
10191;SDS011;17580;50.850;4.504;2023-03-19T04:41:12;8.27;;;7.47;;
10191;SDS011;17580;50.850;4.504;2023-03-19T04:43:40;9.33;;;8.50;;
10191;SDS011;17580;50.850;4.504;2023-03-19T04:46:08;7.77;;;7.07;;
10191;SDS011;17580;50.850;4.504;2023-03-19T04:48:35;9.00;;;7.10;;
10191;SDS011;17580;50.850;4.504;2023-03-19T04:51:04;8.80;;;7.70;;
10191;SDS011;17580;50.850;4.504;2023-03-19T04:53:32;8.17;;;7.37;;
10191;SDS011;17580;50.850;4.504;2023-03-19T04:56:00;6.37;;;5.87;;
10191;SDS011;17580;50.850;4.504;2023-03-19T04:58:27;8.13;;;7.30;;
10191;SDS011;17580;50.850;4.504;2023-03-19T05:00:54;7.13;;;6.53;;
10191;SDS011;17580;50.850;4.504;2023-03-19T05:03:23;8.07;;;6.33;;
10191;SDS011;17580;50.850;4.504;2023-03-19T05:05:51;6.97;;;6.33;;
10191;SDS011;17580;50.850;4.504;2023-03-19T05:08:18;8.20;;;7.27;;
10191;SDS011;17580;50.850;4.504;2023-03-19T05:10:46;10.60;;;8.50;;
10191;SDS011;17580;50.850;4.504;2023-03-19T05:13:13;8.10;;;6.80;;
10191;SDS011;17580;50.850;4.504;2023-03-19T05:15:40;7.77;;;6.90;;
10191;SDS011;17580;50.850;4.504;2023-03-19T05:18:08;8.47;;;7.53;;
10191;SDS011;17580;50.850;4.504;2023-03-19T05:20:37;7.90;;;6.80;;
10191;SDS011;17580;50.850;4.504;2023-03-19T05:23:06;7.50;;;6.80;;
10191;SDS011;17580;50.850;4.504;2023-03-19T05:25:33;7.13;;;6.53;;
10191;SDS011;17580;50.850;4.504;2023-03-19T05:28:00;8.53;;;7.73;;
10191;SDS011;17580;50.850;4.504;2023-03-19T05:30:27;6.73;;;6.13;;
10191;SDS011;17580;50.850;4.504;2023-03-19T05:32:56;5.93;;;5.43;;
10191;SDS011;17580;50.850;4.504;2023-03-19T05:35:23;6.83;;;6.13;;
10191;SDS011;17580;50.850;4.504;2023-03-19T05:37:53;8.27;;;6.87;;
10191;SDS011;17580;50.850;4.504;2023-03-19T05:40:20;8.07;;;7.27;;
10191;SDS011;17580;50.850;4.504;2023-03-19T05:42:48;8.70;;;7.10;;
10191;SDS011;17580;50.850;4.504;2023-03-19T05:45:15;8.53;;;5.90;;
10191;SDS011;17580;50.850;4.504;2023-03-19T05:47:42;7.73;;;7.03;;
10191;SDS011;17580;50.850;4.504;2023-03-19T05:50:12;6.33;;;5.73;;
10191;SDS011;17580;50.850;4.504;2023-03-19T05:52:39;7.07;;;6.40;;
10191;SDS011;17580;50.850;4.504;2023-03-19T05:55:08;7.27;;;6.00;;
10191;SDS011;17580;50.850;4.504;2023-03-19T05:57:36;8.87;;;5.57;;
10191;SDS011;17580;50.850;4.504;2023-03-19T06:00:03;9.97;;;5.80;;
10191;SDS011;17580;50.850;4.504;2023-03-19T06:02:31;5.33;;;4.73;;
10191;SDS011;17580;50.850;4.504;2023-03-19T06:04:59;5.23;;;4.80;;
10191;SDS011;17580;50.850;4.504;2023-03-19T06:07:26;6.27;;;4.37;;
10191;SDS011;17580;50.850;4.504;2023-03-19T06:09:53;5.40;;;4.90;;
10191;SDS011;17580;50.850;4.504;2023-03-19T06:12:21;5.07;;;4.13;;
10191;SDS011;17580;50.850;4.504;2023-03-19T06:14:50;4.10;;;3.63;;
10191;SDS011;17580;50.850;4.504;2023-03-19T06:17:17;4.53;;;4.10;;
10191;SDS011;17580;50.850;4.504;2023-03-19T06:19:44;15.03;;;5.83;;
10191;SDS011;17580;50.850;4.504;2023-03-19T06:22:11;4.50;;;4.10;;
10191;SDS011;17580;50.850;4.504;2023-03-19T06:24:38;5.47;;;4.07;;
10191;SDS011;17580;50.850;4.504;2023-03-19T06:27:05;4.93;;;3.87;;
10191;SDS011;17580;50.850;4.504;2023-03-19T06:29:33;7.40;;;3.70;;
10191;SDS011;17580;50.850;4.504;2023-03-19T06:32:00;9.53;;;4.63;;
10191;SDS011;17580;50.850;4.504;2023-03-19T06:34:28;5.43;;;4.00;;
10191;SDS011;17580;50.850;4.504;2023-03-19T06:36:55;5.17;;;3.40;;
10191;SDS011;17580;50.850;4.504;2023-03-19T06:39:22;5.00;;;3.77;;
10191;SDS011;17580;50.850;4.504;2023-03-19T06:41:50;6.27;;;3.67;;
10191;SDS011;17580;50.850;4.504;2023-03-19T06:44:17;6.53;;;3.90;;
10191;SDS011;17580;50.850;4.504;2023-03-19T06:46:45;3.57;;;3.30;;
10191;SDS011;17580;50.850;4.504;2023-03-19T06:49:13;9.30;;;4.40;;
10191;SDS011;17580;50.850;4.504;2023-03-19T06:51:40;4.53;;;3.80;;
10191;SDS011;17580;50.850;4.504;2023-03-19T06:54:07;4.13;;;3.53;;
10191;SDS011;17580;50.850;4.504;2023-03-19T06:56:34;4.43;;;4.03;;
10191;SDS011;17580;50.850;4.504;2023-03-19T06:59:01;4.63;;;3.80;;
10191;SDS011;17580;50.850;4.504;2023-03-19T07:01:29;3.50;;;3.20;;
10191;SDS011;17580;50.850;4.504;2023-03-19T07:03:57;3.83;;;3.50;;
10191;SDS011;17580;50.850;4.504;2023-03-19T07:06:24;5.63;;;3.77;;
10191;SDS011;17580;50.850;4.504;2023-03-19T07:08:51;6.63;;;3.30;;
10191;SDS011;17580;50.850;4.504;2023-03-19T07:11:18;7.97;;;3.37;;
10191;SDS011;17580;50.850;4.504;2023-03-19T07:13:45;7.07;;;3.60;;
10191;SDS011;17580;50.850;4.504;2023-03-19T07:16:13;6.37;;;3.20;;
10191;SDS011;17580;50.850;4.504;2023-03-19T07:18:40;5.80;;;3.23;;
10191;SDS011;17580;50.850;4.504;2023-03-19T07:21:08;7.53;;;3.80;;
10191;SDS011;17580;50.850;4.504;2023-03-19T07:23:35;4.27;;;3.53;;
10191;SDS011;17580;50.850;4.504;2023-03-19T07:26:02;6.57;;;3.33;;
10191;SDS011;17580;50.850;4.504;2023-03-19T07:28:30;6.70;;;4.23;;
10191;SDS011;17580;50.850;4.504;2023-03-19T07:30:57;5.63;;;3.70;;
10191;SDS011;17580;50.850;4.504;2023-03-19T07:33:24;4.10;;;3.13;;
10191;SDS011;17580;50.850;4.504;2023-03-19T07:35:51;6.23;;;4.03;;
10191;SDS011;17580;50.850;4.504;2023-03-19T07:38:19;7.03;;;3.70;;
10191;SDS011;17580;50.850;4.504;2023-03-19T07:40:46;6.47;;;3.97;;
10191;SDS011;17580;50.850;4.504;2023-03-19T07:43:15;9.00;;;5.17;;
10191;SDS011;17580;50.850;4.504;2023-03-19T07:45:42;6.17;;;4.27;;
10191;SDS011;17580;50.850;4.504;2023-03-19T07:48:09;5.60;;;3.73;;
10191;SDS011;17580;50.850;4.504;2023-03-19T07:50:37;9.07;;;4.90;;
10191;SDS011;17580;50.850;4.504;2023-03-19T07:53:04;10.53;;;4.23;;
10191;SDS011;17580;50.850;4.504;2023-03-19T07:55:33;11.87;;;4.50;;
10191;SDS011;17580;50.850;4.504;2023-03-19T07:58:01;7.27;;;4.77;;
10191;SDS011;17580;50.850;4.504;2023-03-19T08:00:28;4.10;;;3.70;;
10191;SDS011;17580;50.850;4.504;2023-03-19T08:02:56;12.17;;;4.90;;
10191;SDS011;17580;50.850;4.504;2023-03-19T08:05:23;6.40;;;4.10;;
10191;SDS011;17580;50.850;4.504;2023-03-19T08:07:50;4.17;;;3.70;;
10191;SDS011;17580;50.850;4.504;2023-03-19T08:10:17;9.63;;;5.03;;
10191;SDS011;17580;50.850;4.504;2023-03-19T08:12:46;4.00;;;3.20;;
10191;SDS011;17580;50.850;4.504;2023-03-19T08:15:13;8.70;;;3.90;;
10191;SDS011;17580;50.850;4.504;2023-03-19T08:17:40;7.90;;;2.90;;
10191;SDS011;17580;50.850;4.504;2023-03-19T08:20:08;4.60;;;3.10;;
10191;SDS011;17580;50.850;4.504;2023-03-19T08:22:38;4.60;;;2.70;;
10191;SDS011;17580;50.850;4.504;2023-03-19T08:25:06;4.07;;;2.70;;
10191;SDS011;17580;50.850;4.504;2023-03-19T08:27:34;9.47;;;4.10;;
10191;SDS011;17580;50.850;4.504;2023-03-19T08:30:04;3.97;;;2.80;;
10191;SDS011;17580;50.850;4.504;2023-03-19T08:32:33;7.60;;;2.73;;
10191;SDS011;17580;50.850;4.504;2023-03-19T08:35:00;5.00;;;3.07;;
10191;SDS011;17580;50.850;4.504;2023-03-19T08:37:27;5.40;;;2.67;;
10191;SDS011;17580;50.850;4.504;2023-03-19T08:39:54;3.63;;;2.47;;
10191;SDS011;17580;50.850;4.504;2023-03-19T08:42:21;7.63;;;2.93;;
10191;SDS011;17580;50.850;4.504;2023-03-19T08:44:48;6.23;;;2.73;;
10191;SDS011;17580;50.850;4.504;2023-03-19T08:47:17;6.57;;;2.73;;
10191;SDS011;17580;50.850;4.504;2023-03-19T08:49:45;7.33;;;3.00;;
10191;SDS011;17580;50.850;4.504;2023-03-19T08:52:12;6.20;;;2.80;;
10191;SDS011;17580;50.850;4.504;2023-03-19T08:54:39;8.93;;;3.07;;
10191;SDS011;17580;50.850;4.504;2023-03-19T08:57:06;7.80;;;3.10;;
10191;SDS011;17580;50.850;4.504;2023-03-19T08:59:33;6.87;;;2.57;;
10191;SDS011;17580;50.850;4.504;2023-03-19T09:02:00;5.20;;;2.30;;
10191;SDS011;17580;50.850;4.504;2023-03-19T09:04:29;5.63;;;2.17;;
10191;SDS011;17580;50.850;4.504;2023-03-19T09:07:00;6.63;;;2.57;;
10191;SDS011;17580;50.850;4.504;2023-03-19T09:09:27;8.27;;;2.43;;
10191;SDS011;17580;50.850;4.504;2023-03-19T09:11:54;6.13;;;2.60;;
10191;SDS011;17580;50.850;4.504;2023-03-19T09:14:22;8.63;;;3.20;;
10191;SDS011;17580;50.850;4.504;2023-03-19T09:16:49;6.07;;;2.50;;
10191;SDS011;17580;50.850;4.504;2023-03-19T09:19:16;7.57;;;2.47;;
10191;SDS011;17580;50.850;4.504;2023-03-19T09:21:44;5.40;;;2.10;;
10191;SDS011;17580;50.850;4.504;2023-03-19T09:24:12;6.60;;;2.73;;
10191;SDS011;17580;50.850;4.504;2023-03-19T09:26:39;7.90;;;2.30;;
10191;SDS011;17580;50.850;4.504;2023-03-19T09:29:06;8.03;;;2.43;;
10191;SDS011;17580;50.850;4.504;2023-03-19T09:31:33;8.30;;;2.07;;
10191;SDS011;17580;50.850;4.504;2023-03-19T09:34:00;7.53;;;2.30;;
10191;SDS011;17580;50.850;4.504;2023-03-19T09:36:27;9.93;;;3.37;;
10191;SDS011;17580;50.850;4.504;2023-03-19T09:38:56;9.33;;;3.00;;
10191;SDS011;17580;50.850;4.504;2023-03-19T09:41:26;5.73;;;2.73;;
10191;SDS011;17580;50.850;4.504;2023-03-19T09:43:59;7.33;;;2.43;;
10191;SDS011;17580;50.850;4.504;2023-03-19T09:46:29;5.53;;;3.07;;
10191;SDS011;17580;50.850;4.504;2023-03-19T09:49:03;5.07;;;2.70;;
10191;SDS011;17580;50.850;4.504;2023-03-19T09:51:38;5.43;;;3.03;;
10191;SDS011;17580;50.850;4.504;2023-03-19T09:54:15;5.97;;;3.00;;
10191;SDS011;17580;50.850;4.504;2023-03-19T09:56:48;8.00;;;3.10;;
10191;SDS011;17580;50.850;4.504;2023-03-19T09:59:15;5.53;;;2.70;;
10191;SDS011;17580;50.850;4.504;2023-03-19T10:01:43;6.83;;;3.10;;
10191;SDS011;17580;50.850;4.504;2023-03-19T10:04:25;7.93;;;3.20;;
10191;SDS011;17580;50.850;4.504;2023-03-19T10:07:11;5.73;;;3.00;;
10191;SDS011;17580;50.850;4.504;2023-03-19T10:09:54;5.63;;;3.53;;
10191;SDS011;17580;50.850;4.504;2023-03-19T10:12:41;5.87;;;3.43;;
10191;SDS011;17580;50.850;4.504;2023-03-19T10:15:16;6.97;;;3.33;;
10191;SDS011;17580;50.850;4.504;2023-03-19T10:17:49;5.93;;;3.00;;
10191;SDS011;17580;50.850;4.504;2023-03-19T10:20:24;5.00;;;3.30;;
10191;SDS011;17580;50.850;4.504;2023-03-19T10:23:09;4.40;;;3.13;;
10191;SDS011;17580;50.850;4.504;2023-03-19T10:25:49;7.60;;;3.23;;
10191;SDS011;17580;50.850;4.504;2023-03-19T10:28:19;4.27;;;2.90;;
10191;SDS011;17580;50.850;4.504;2023-03-19T10:30:49;8.17;;;3.63;;
10191;SDS011;17580;50.850;4.504;2023-03-19T10:33:23;7.83;;;2.97;;
10191;SDS011;17580;50.850;4.504;2023-03-19T10:35:54;4.43;;;2.93;;
10191;SDS011;17580;50.850;4.504;2023-03-19T10:38:25;4.77;;;2.70;;
10191;SDS011;17580;50.850;4.504;2023-03-19T10:41:02;6.87;;;2.53;;
10191;SDS011;17580;50.850;4.504;2023-03-19T10:43:41;6.30;;;3.17;;
10191;SDS011;17580;50.850;4.504;2023-03-19T10:46:12;4.47;;;3.20;;
10191;SDS011;17580;50.850;4.504;2023-03-19T10:48:41;6.40;;;3.10;;
10191;SDS011;17580;50.850;4.504;2023-03-19T10:51:09;6.43;;;3.03;;
10191;SDS011;17580;50.850;4.504;2023-03-19T10:53:40;3.97;;;2.90;;
10191;SDS011;17580;50.850;4.504;2023-03-19T10:56:14;8.20;;;2.73;;
10191;SDS011;17580;50.850;4.504;2023-03-19T10:58:55;5.80;;;3.13;;
10191;SDS011;17580;50.850;4.504;2023-03-19T11:01:25;4.57;;;2.50;;
10191;SDS011;17580;50.850;4.504;2023-03-19T11:03:54;6.13;;;2.60;;
10191;SDS011;17580;50.850;4.504;2023-03-19T11:06:24;9.90;;;2.90;;
10191;SDS011;17580;50.850;4.504;2023-03-19T11:08:56;5.23;;;2.70;;
10191;SDS011;17580;50.850;4.504;2023-03-19T11:11:33;4.53;;;2.60;;
10191;SDS011;17580;50.850;4.504;2023-03-19T11:14:05;3.63;;;2.50;;
10191;SDS011;17580;50.850;4.504;2023-03-19T11:16:45;4.80;;;2.27;;
10191;SDS011;17580;50.850;4.504;2023-03-19T11:19:18;5.10;;;2.53;;
10191;SDS011;17580;50.850;4.504;2023-03-19T11:21:52;6.43;;;2.43;;
10191;SDS011;17580;50.850;4.504;2023-03-19T11:24:26;2.43;;;2.00;;
10191;SDS011;17580;50.850;4.504;2023-03-19T11:27:03;4.57;;;1.90;;
10191;SDS011;17580;50.850;4.504;2023-03-19T11:29:31;2.13;;;2.00;;
10191;SDS011;17580;50.850;4.504;2023-03-19T11:32:03;6.23;;;3.03;;
10191;SDS011;17580;50.850;4.504;2023-03-19T11:34:41;3.03;;;2.30;;
10191;SDS011;17580;50.850;4.504;2023-03-19T11:37:15;6.57;;;3.13;;
10191;SDS011;17580;50.850;4.504;2023-03-19T11:39:54;5.10;;;2.70;;
10191;SDS011;17580;50.850;4.504;2023-03-19T11:45:27;4.90;;;2.47;;
10191;SDS011;17580;50.850;4.504;2023-03-19T11:48:03;6.10;;;2.70;;
10191;SDS011;17580;50.850;4.504;2023-03-19T11:50:44;7.80;;;4.20;;
10191;SDS011;17580;50.850;4.504;2023-03-19T11:53:18;8.63;;;4.93;;
10191;SDS011;17580;50.850;4.504;2023-03-19T11:55:52;10.53;;;5.47;;
10191;SDS011;17580;50.850;4.504;2023-03-19T11:58:33;7.43;;;4.63;;
10191;SDS011;17580;50.850;4.504;2023-03-19T12:01:17;7.80;;;5.37;;
10191;SDS011;17580;50.850;4.504;2023-03-19T12:03:56;6.70;;;5.27;;
10191;SDS011;17580;50.850;4.504;2023-03-19T12:06:39;5.47;;;4.40;;
10191;SDS011;17580;50.850;4.504;2023-03-19T12:09:18;6.33;;;4.83;;
10191;SDS011;17580;50.850;4.504;2023-03-19T12:11:53;6.40;;;5.23;;
10191;SDS011;17580;50.850;4.504;2023-03-19T12:14:32;4.63;;;3.67;;
10191;SDS011;17580;50.850;4.504;2023-03-19T12:17:22;5.17;;;3.80;;
10191;SDS011;17580;50.850;4.504;2023-03-19T12:20:06;6.27;;;3.60;;
10191;SDS011;17580;50.850;4.504;2023-03-19T12:22:47;5.97;;;4.10;;
10191;SDS011;17580;50.850;4.504;2023-03-19T12:25:28;5.60;;;3.60;;
10191;SDS011;17580;50.850;4.504;2023-03-19T12:28:06;4.33;;;3.60;;
10191;SDS011;17580;50.850;4.504;2023-03-19T12:30:40;5.77;;;4.13;;
10191;SDS011;17580;50.850;4.504;2023-03-19T12:33:15;4.00;;;3.30;;
10191;SDS011;17580;50.850;4.504;2023-03-19T12:35:51;4.73;;;3.83;;
10191;SDS011;17580;50.850;4.504;2023-03-19T12:38:22;6.33;;;4.90;;
10191;SDS011;17580;50.850;4.504;2023-03-19T12:40:52;6.40;;;4.27;;
10191;SDS011;17580;50.850;4.504;2023-03-19T12:43:26;5.27;;;4.00;;
10191;SDS011;17580;50.850;4.504;2023-03-19T12:45:58;4.27;;;3.83;;
10191;SDS011;17580;50.850;4.504;2023-03-19T12:48:34;4.00;;;3.70;;
10191;SDS011;17580;50.850;4.504;2023-03-19T12:51:07;3.40;;;3.10;;
10191;SDS011;17580;50.850;4.504;2023-03-19T12:53:39;4.73;;;3.10;;
10191;SDS011;17580;50.850;4.504;2023-03-19T12:56:13;4.27;;;3.50;;
10191;SDS011;17580;50.850;4.504;2023-03-19T12:58:49;3.97;;;3.60;;
10191;SDS011;17580;50.850;4.504;2023-03-19T13:01:22;4.03;;;3.53;;
10191;SDS011;17580;50.850;4.504;2023-03-19T13:03:55;5.27;;;4.13;;
10191;SDS011;17580;50.850;4.504;2023-03-19T13:06:29;5.47;;;4.67;;
10191;SDS011;17580;50.850;4.504;2023-03-19T13:09:02;5.53;;;4.40;;
10191;SDS011;17580;50.850;4.504;2023-03-19T13:11:34;7.93;;;5.17;;
10191;SDS011;17580;50.850;4.504;2023-03-19T13:14:09;7.67;;;6.20;;
10191;SDS011;17580;50.850;4.504;2023-03-19T13:16:42;7.53;;;5.90;;
10191;SDS011;17580;50.850;4.504;2023-03-19T13:19:19;5.33;;;4.83;;
10191;SDS011;17580;50.850;4.504;2023-03-19T13:21:52;6.60;;;5.93;;
10191;SDS011;17580;50.850;4.504;2023-03-19T13:24:24;4.40;;;4.00;;
10191;SDS011;17580;50.850;4.504;2023-03-19T13:26:53;4.73;;;3.83;;
10191;SDS011;17580;50.850;4.504;2023-03-19T13:29:23;5.83;;;3.73;;
10191;SDS011;17580;50.850;4.504;2023-03-19T13:31:52;3.73;;;3.23;;
10191;SDS011;17580;50.850;4.504;2023-03-19T13:34:27;5.73;;;3.80;;
10191;SDS011;17580;50.850;4.504;2023-03-19T13:37:00;5.23;;;4.80;;
10191;SDS011;17580;50.850;4.504;2023-03-19T13:39:33;6.53;;;5.60;;
10191;SDS011;17580;50.850;4.504;2023-03-19T13:42:09;5.90;;;5.30;;
10191;SDS011;17580;50.850;4.504;2023-03-19T13:44:50;5.40;;;4.90;;
10191;SDS011;17580;50.850;4.504;2023-03-19T13:47:39;5.50;;;5.00;;
10191;SDS011;17580;50.850;4.504;2023-03-19T13:50:26;10.73;;;6.27;;
10191;SDS011;17580;50.850;4.504;2023-03-19T13:53:10;7.83;;;5.80;;
10191;SDS011;17580;50.850;4.504;2023-03-19T13:55:57;8.00;;;6.23;;
10191;SDS011;17580;50.850;4.504;2023-03-19T13:58:25;6.87;;;6.23;;
10191;SDS011;17580;50.850;4.504;2023-03-19T14:01:10;10.17;;;7.07;;
10191;SDS011;17580;50.850;4.504;2023-03-19T14:03:52;8.97;;;7.13;;
10191;SDS011;17580;50.850;4.504;2023-03-19T14:06:31;9.37;;;7.90;;
10191;SDS011;17580;50.850;4.504;2023-03-19T14:09:02;7.47;;;6.23;;
10191;SDS011;17580;50.850;4.504;2023-03-19T14:11:30;6.93;;;5.63;;
10191;SDS011;17580;50.850;4.504;2023-03-19T14:14:00;6.60;;;5.93;;
10191;SDS011;17580;50.850;4.504;2023-03-19T14:16:30;7.60;;;6.40;;
10191;SDS011;17580;50.850;4.504;2023-03-19T14:18:59;7.33;;;6.40;;
10191;SDS011;17580;50.850;4.504;2023-03-19T14:21:33;5.73;;;5.23;;
10191;SDS011;17580;50.850;4.504;2023-03-19T14:24:26;5.80;;;5.20;;
10191;SDS011;17580;50.850;4.504;2023-03-19T14:27:00;4.23;;;3.93;;
10191;SDS011;17580;50.850;4.504;2023-03-19T14:29:29;4.90;;;4.60;;
10191;SDS011;17580;50.850;4.504;2023-03-19T14:32:01;4.37;;;3.97;;
10191;SDS011;17580;50.850;4.504;2023-03-19T14:34:35;4.00;;;3.70;;
10191;SDS011;17580;50.850;4.504;2023-03-19T14:37:13;3.80;;;3.33;;
10191;SDS011;17580;50.850;4.504;2023-03-19T14:39:45;3.80;;;3.43;;
10191;SDS011;17580;50.850;4.504;2023-03-19T14:42:18;3.37;;;3.13;;
10191;SDS011;17580;50.850;4.504;2023-03-19T14:45:07;3.37;;;3.03;;
10191;SDS011;17580;50.850;4.504;2023-03-19T14:48:16;5.77;;;5.10;;
10191;SDS011;17580;50.850;4.504;2023-03-19T14:50:53;4.87;;;4.47;;
10191;SDS011;17580;50.850;4.504;2023-03-19T14:53:33;5.00;;;4.57;;
10191;SDS011;17580;50.850;4.504;2023-03-19T14:56:09;5.37;;;4.97;;
10191;SDS011;17580;50.850;4.504;2023-03-19T14:58:46;5.80;;;5.20;;
10191;SDS011;17580;50.850;4.504;2023-03-19T15:01:14;5.13;;;4.73;;
10191;SDS011;17580;50.850;4.504;2023-03-19T15:03:41;5.60;;;5.10;;
10191;SDS011;17580;50.850;4.504;2023-03-19T15:06:09;5.67;;;5.10;;
10191;SDS011;17580;50.850;4.504;2023-03-19T15:08:40;8.03;;;5.03;;